Time;durP1;ratioP1;P1;durP2;ratioP2;P2;SDS_P1;SDS_P2;PMS_P1;PMS_P2;Temp;Humidity;BMP_temperature;BMP_pressure;BME280_temperature;BME280_humidity;BME280_pressure;Samples;Min_cycle;Max_cycle;Signal;HPM_P1;HPM_P2
2023/03/30 00:00:47;;;;;;;5.05;2.10;;;;;;;11.48;77.11;100503.78;5007873;28;20026;-76
2023/03/30 00:03:13;;;;;;;7.15;2.03;;;;;;;11.50;76.70;100522.81;5007527;28;20034;-76
2023/03/30 00:05:38;;;;;;;5.38;2.30;;;;;;;11.52;76.36;100528.81;5011470;28;20444;-76
2023/03/30 00:08:04;;;;;;;7.28;2.10;;;;;;;11.55;76.07;100531.31;5011478;28;20057;-77
2023/03/30 00:10:29;;;;;;;3.65;1.80;;;;;;;11.57;75.86;100518.22;5012479;28;20025;-76
2023/03/30 00:12:56;;;;;;;3.35;1.83;;;;;;;11.56;75.70;100506.97;5005875;28;20400;-76
2023/03/30 00:15:22;;;;;;;4.85;1.73;;;;;;;11.56;74.85;100514.78;5006557;28;20042;-76
2023/03/30 00:17:49;;;;;;;4.70;1.90;;;;;;;11.60;74.98;100519.00;5007391;28;20491;-76
2023/03/30 00:20:15;;;;;;;5.38;1.63;;;;;;;11.61;75.33;100515.50;5011521;28;20029;-76
2023/03/30 00:22:42;;;;;;;5.38;1.85;;;;;;;11.62;74.58;100501.53;5009475;28;20388;-76
2023/03/30 00:25:10;;;;;;;4.47;1.80;;;;;;;11.60;74.73;100492.94;5010410;28;20341;-76
2023/03/30 00:27:36;;;;;;;5.07;1.85;;;;;;;11.57;74.40;100498.25;5012058;28;20026;-76
2023/03/30 00:30:06;;;;;;;5.70;2.05;;;;;;;11.57;74.65;100500.88;5011176;28;20033;-76
2023/03/30 00:32:33;;;;;;;3.60;1.80;;;;;;;11.56;74.62;100496.56;5011003;28;20046;-76
2023/03/30 00:34:59;;;;;;;5.03;2.03;;;;;;;11.58;74.57;100488.66;5010366;28;20545;-76
2023/03/30 00:37:24;;;;;;;3.13;1.92;;;;;;;11.57;74.47;100480.03;5009946;28;20029;-76
2023/03/30 00:39:52;;;;;;;3.92;1.90;;;;;;;11.57;74.47;100493.06;5009676;28;20053;-76
2023/03/30 00:42:17;;;;;;;6.22;2.20;;;;;;;11.57;74.70;100487.84;5005652;28;20092;-76
2023/03/30 00:45:01;;;;;;;5.00;2.13;;;;;;;11.59;75.19;100482.56;5009384;28;21876;-76
2023/03/30 00:47:27;;;;;;;3.72;1.75;;;;;;;11.57;73.82;100477.41;5011484;28;20109;-76
2023/03/30 00:49:53;;;;;;;5.82;1.90;;;;;;;11.58;73.79;100465.22;5006699;28;20042;-76
2023/03/30 00:52:23;;;;;;;3.35;1.70;;;;;;;11.58;73.79;100462.63;5010177;28;20075;-76
2023/03/30 00:54:51;;;;;;;5.18;1.85;;;;;;;11.57;73.63;100466.13;5010238;28;20029;-76
2023/03/30 00:57:20;;;;;;;4.22;1.80;;;;;;;11.58;73.57;100457.41;5009840;28;20109;-76
2023/03/30 00:59:46;;;;;;;8.43;2.00;;;;;;;11.54;73.71;100446.25;5009441;28;20032;-76
2023/03/30 01:02:12;;;;;;;4.15;1.60;;;;;;;11.53;73.45;100444.56;5008154;28;20022;-76
2023/03/30 01:04:37;;;;;;;3.88;2.00;;;;;;;11.54;73.82;100443.66;5011430;28;20040;-76
2023/03/30 01:07:04;;;;;;;5.50;1.90;;;;;;;11.54;73.57;100425.41;5009191;28;20026;-76
2023/03/30 01:09:30;;;;;;;5.43;2.05;;;;;;;11.54;73.59;100430.63;5006718;28;20046;-76
2023/03/30 01:11:55;;;;;;;3.22;1.77;;;;;;;11.53;73.31;100429.75;5007485;28;20040;-76
2023/03/30 01:14:21;;;;;;;3.83;1.75;;;;;;;11.51;73.81;100435.94;5010829;28;20026;-76
2023/03/30 01:16:52;;;;;;;6.63;1.90;;;;;;;11.49;74.08;100429.94;5007427;28;20484;-76
2023/03/30 01:19:33;;;;;;;2.78;1.60;;;;;;;11.49;74.22;100428.19;5010663;28;20030;-76
2023/03/30 01:22:20;;;;;;;6.20;2.13;;;;;;;11.46;73.70;100427.44;5009649;28;20038;-76
2023/03/30 01:25:14;;;;;;;4.45;1.90;;;;;;;11.46;73.99;100424.81;5009571;28;20548;-76
2023/03/30 01:27:48;;;;;;;4.85;1.70;;;;;;;11.46;73.90;100440.47;5010086;28;20037;-76
2023/03/30 01:30:51;;;;;;;4.25;1.65;;;;;;;11.45;74.46;100438.75;5008802;28;20217;-76
2023/03/30 01:33:22;;;;;;;3.67;1.60;;;;;;;11.43;73.85;100444.03;5005852;28;20400;-76
2023/03/30 01:36:16;;;;;;;6.70;2.00;;;;;;;11.42;73.99;100442.34;5008423;28;20128;-76
2023/03/30 01:38:50;;;;;;;2.70;1.50;;;;;;;11.44;73.76;100435.31;5007737;28;20053;-77
2023/03/30 01:41:28;;;;;;;4.85;1.60;;;;;;;11.45;73.95;100441.34;5004054;28;20029;-76
2023/03/30 01:44:11;;;;;;;5.45;1.70;;;;;;;11.48;73.70;100425.63;5019807;28;20049;-76
2023/03/30 01:46:43;;;;;;;4.25;1.60;;;;;;;11.49;74.03;100422.97;5007105;28;20485;-76
2023/03/30 01:49:16;;;;;;;3.97;1.80;;;;;;;11.50;74.05;100418.59;5010504;28;20028;-76
2023/03/30 01:51:47;;;;;;;2.92;1.40;;;;;;;11.51;73.90;100415.97;5008555;28;20042;-76
2023/03/30 01:54:21;;;;;;;5.00;1.77;;;;;;;11.51;73.92;100410.75;5010067;28;20028;-76
2023/03/30 01:56:53;;;;;;;3.33;1.60;;;;;;;11.57;73.35;100407.06;5009032;28;20092;-76
2023/03/30 01:59:28;;;;;;;4.45;1.48;;;;;;;11.64;73.29;100399.88;5009452;28;20069;-76
2023/03/30 02:02:01;;;;;;;3.25;1.40;;;;;;;11.69;73.04;100400.56;5006027;28;20026;-76
2023/03/30 02:04:30;;;;;;;3.38;1.50;;;;;;;11.77;72.61;100414.13;5008816;28;20347;-76
2023/03/30 02:07:01;;;;;;;2.92;1.20;;;;;;;11.85;72.09;100432.09;5008515;28;20373;-76
2023/03/30 02:09:29;;;;;;;3.85;1.42;;;;;;;11.92;72.10;100430.97;5007415;28;20128;-76
2023/03/30 02:11:55;;;;;;;5.90;1.48;;;;;;;11.97;71.65;100423.78;5008862;28;20033;-76
2023/03/30 02:14:26;;;;;;;3.28;1.30;;;;;;;12.02;71.66;100420.19;5004643;28;20484;-76
2023/03/30 02:17:17;;;;;;;4.22;1.58;;;;;;;12.03;72.06;100416.69;5008247;28;20018;-76
2023/03/30 02:19:46;;;;;;;3.80;1.33;;;;;;;12.05;70.98;100433.97;4999653;28;20044;-76
2023/03/30 02:22:14;;;;;;;5.22;1.48;;;;;;;12.10;71.03;100431.19;5008533;28;20036;-76
2023/03/30 02:24:40;;;;;;;5.68;1.60;;;;;;;12.12;71.00;100421.56;5009811;28;20042;-76
2023/03/30 02:27:06;;;;;;;4.28;1.60;;;;;;;12.13;71.17;100423.22;5010100;28;20029;-76
2023/03/30 02:29:35;;;;;;;3.55;1.30;;;;;;;12.14;70.87;100419.72;5008388;28;20030;-76
2023/03/30 02:32:00;;;;;;;3.65;1.17;;;;;;;12.12;70.68;100416.34;5008772;28;20034;-76
2023/03/30 02:34:46;;;;;;;6.00;1.20;;;;;;;12.08;71.56;100420.81;5010226;28;20100;-76
2023/03/30 02:37:23;;;;;;;3.33;1.20;;;;;;;12.05;71.18;100404.44;5007982;28;20022;-76
2023/03/30 02:40:12;;;;;;;3.85;1.30;;;;;;;12.01;71.18;100419.38;5007301;28;20116;-77
2023/03/30 02:42:45;;;;;;;5.53;1.50;;;;;;;11.99;71.25;100424.63;5008021;28;20085;-77
2023/03/30 02:45:32;;;;;;;6.57;1.48;;;;;;;11.99;71.64;100415.97;5006406;28;20105;-76
2023/03/30 02:48:13;;;;;;;3.17;1.23;;;;;;;11.98;71.54;100422.91;5005548;28;20392;-76
2023/03/30 02:50:45;;;;;;;2.92;1.30;;;;;;;11.98;71.66;100425.53;5004212;28;20074;-76
2023/03/30 02:53:28;;;;;;;;;;;;;;;12.01;72.81;100419.38;5007349;28;20097;-76
2023/03/30 02:56:11;;;;;;;3.22;1.25;;;;;;;11.98;71.97;100419.44;5006131;28;19920;-76
2023/03/30 02:58:42;;;;;;;3.72;1.23;;;;;;;11.96;71.76;100416.88;5007283;28;20029;-76
2023/03/30 03:01:49;;;;;;;3.35;1.40;;;;;;;11.99;72.18;100419.41;5007344;28;20112;-76
2023/03/30 03:04:17;;;;;;;4.03;1.23;;;;;;;11.98;71.57;100425.53;5003838;28;20560;-76
2023/03/30 03:06:43;;;;;;;3.78;1.35;;;;;;;11.99;71.62;100416.81;5005603;28;20038;-76
2023/03/30 03:09:09;;;;;;;3.25;1.45;;;;;;;12.02;71.81;100421.06;5005688;28;20092;-76
2023/03/30 03:11:34;;;;;;;3.33;1.50;;;;;;;12.04;71.32;100405.34;5003613;28;20026;-76
2023/03/30 03:14:00;;;;;;;3.97;1.40;;;;;;;12.06;71.17;100404.38;5006910;28;20717;-76
2023/03/30 03:16:25;;;;;;;3.08;1.40;;;;;;;12.08;71.11;100399.94;5007741;28;20387;-76
2023/03/30 03:18:51;;;;;;;4.10;1.55;;;;;;;12.11;71.28;100405.06;5004338;28;20393;-76
2023/03/30 03:21:17;;;;;;;2.90;1.40;;;;;;;12.13;71.02;100407.59;5004455;28;20030;-77
2023/03/30 03:23:42;;;;;;;3.30;1.13;;;;;;;12.16;71.13;100412.69;5005075;28;20030;-77
2023/03/30 03:26:10;;;;;;;4.20;1.42;;;;;;;12.18;70.97;100416.09;5007422;28;20411;-76
2023/03/30 03:28:35;;;;;;;3.05;1.40;;;;;;;12.21;71.01;100418.56;5005725;28;20121;-76
2023/03/30 03:31:01;;;;;;;4.43;1.40;;;;;;;12.24;71.06;100412.38;5007489;28;20108;-76
2023/03/30 03:33:27;;;;;;;3.67;1.30;;;;;;;12.25;70.82;100401.91;5004723;28;20044;-76
2023/03/30 03:35:52;;;;;;;3.28;1.23;;;;;;;12.28;70.64;100411.34;5008041;28;20033;-76
2023/03/30 03:38:20;;;;;;;4.35;1.25;;;;;;;12.29;71.04;100408.72;5008986;28;20029;-76
2023/03/30 03:40:49;;;;;;;2.97;1.20;;;;;;;12.29;70.72;100406.09;5008269;28;20091;-76
2023/03/30 03:43:14;;;;;;;3.15;1.25;;;;;;;12.30;70.76;100399.09;5006788;28;20700;-76
2023/03/30 03:45:40;;;;;;;3.35;1.20;;;;;;;12.29;71.03;100403.50;5007363;28;20029;-76
2023/03/30 03:48:05;;;;;;;2.72;1.10;;;;;;;12.28;70.76;100409.63;5008046;28;20120;-76
2023/03/30 03:50:30;;;;;;;3.35;1.30;;;;;;;12.28;71.02;100386.13;5009808;28;20061;-76
2023/03/30 03:52:56;;;;;;;2.63;1.10;;;;;;;12.27;70.78;100379.22;5010377;28;20103;-76
2023/03/30 03:55:22;;;;;;;4.00;1.30;;;;;;;12.27;70.82;100379.22;5008792;28;20057;-76
2023/03/30 03:57:47;;;;;;;4.35;1.35;;;;;;;12.27;70.28;100384.44;5009673;28;20026;-76
2023/03/30 04:00:15;;;;;;;3.45;1.38;;;;;;;12.28;70.08;100388.75;5009279;28;20037;-76
2023/03/30 04:02:44;;;;;;;3.10;1.30;;;;;;;12.29;70.30;100372.19;5006636;28;20239;-76
2023/03/30 04:05:10;;;;;;;3.50;1.10;;;;;;;12.33;69.22;100379.88;5005988;28;20038;-77
2023/03/30 04:07:35;;;;;;;3.35;1.48;;;;;;;12.36;68.80;100377.13;5009967;28;20405;-76
2023/03/30 04:10:05;;;;;;;4.05;1.20;;;;;;;12.35;68.86;100365.88;5011374;28;20034;-77
2023/03/30 04:12:30;;;;;;;3.22;1.20;;;;;;;12.36;69.04;100371.91;5008516;28;20033;-77
2023/03/30 04:14:55;;;;;;;4.60;1.38;;;;;;;12.37;68.97;100376.22;5005979;28;20495;-77
2023/03/30 04:17:22;;;;;;;5.75;1.30;;;;;;;12.38;68.90;100378.75;5007653;28;20443;-76
2023/03/30 04:19:52;;;;;;;2.88;1.25;;;;;;;12.38;68.57;100370.94;5009347;28;20620;-76
2023/03/30 04:22:18;;;;;;;7.55;1.85;;;;;;;12.44;71.00;100369.88;5009337;28;20415;-76
2023/03/30 04:24:44;;;;;;;3.90;1.30;;;;;;;12.42;70.56;100371.69;5008601;28;20032;-76
2023/03/30 04:27:13;;;;;;;4.05;1.23;;;;;;;12.39;70.78;100371.81;5010473;28;20045;-76
2023/03/30 04:29:39;;;;;;;5.47;1.30;;;;;;;12.35;71.17;100375.44;5008282;28;20124;-76
2023/03/30 04:32:05;;;;;;;5.20;1.25;;;;;;;12.32;70.80;100365.13;5010060;28;20064;-76
2023/03/30 04:34:32;;;;;;;4.32;1.30;;;;;;;12.28;71.00;100365.28;5006424;28;20034;-76
2023/03/30 04:36:57;;;;;;;4.93;1.33;;;;;;;12.25;71.00;100368.00;5005232;28;20034;-76
2023/03/30 04:39:22;;;;;;;3.88;1.10;;;;;;;12.25;71.22;100364.53;5005452;28;20036;-76
2023/03/30 04:41:50;;;;;;;3.00;1.20;;;;;;;12.22;71.27;100359.44;5008912;28;20032;-76
2023/03/30 04:44:19;;;;;;;2.42;1.17;;;;;;;12.21;71.43;100362.97;5010356;28;20073;-76
2023/03/30 04:46:44;;;;;;;4.80;1.30;;;;;;;12.18;71.70;100358.72;5004204;28;20029;-76
2023/03/30 04:49:10;;;;;;;5.00;1.20;;;;;;;12.15;71.78;100351.00;5010255;28;20103;-76
2023/03/30 04:51:36;;;;;;;2.80;1.10;;;;;;;12.13;71.99;100345.00;5010268;28;20080;-76
2023/03/30 04:54:01;;;;;;;3.72;1.20;;;;;;;12.12;72.13;100340.72;5008896;28;20084;-76
2023/03/30 04:56:27;;;;;;;4.07;1.30;;;;;;;12.10;71.96;100345.16;5009466;28;20492;-76
2023/03/30 04:58:52;;;;;;;4.43;1.20;;;;;;;12.06;72.35;100349.63;5007312;28;20010;-76
2023/03/30 05:01:17;;;;;;;3.45;1.23;;;;;;;12.03;72.10;100338.47;5009655;28;20372;-76
2023/03/30 05:03:42;;;;;;;2.90;1.17;;;;;;;12.00;72.41;100339.44;5010897;28;20026;-76
2023/03/30 05:06:08;;;;;;;3.85;1.25;;;;;;;11.97;72.49;100356.00;5008229;28;20034;-76
2023/03/30 05:08:34;;;;;;;6.03;1.38;;;;;;;11.95;72.72;100357.84;5003731;28;20045;-76
2023/03/30 05:11:01;;;;;;;3.88;1.17;;;;;;;11.92;72.55;100360.59;5003671;28;20044;-76
2023/03/30 05:13:27;;;;;;;4.05;1.40;;;;;;;11.91;72.60;100356.28;5003099;28;20034;-76
2023/03/30 05:15:53;;;;;;;5.68;1.58;;;;;;;11.92;72.81;100368.41;5006686;28;20366;-76
2023/03/30 05:18:19;;;;;;;3.78;1.27;;;;;;;11.90;72.66;100390.19;5009248;28;20018;-76
2023/03/30 05:20:45;;;;;;;3.80;1.27;;;;;;;11.88;74.20;100405.91;5006315;28;20480;-76
2023/03/30 05:23:10;;;;;;;7.32;1.67;;;;;;;11.84;77.62;100407.78;5009362;28;20030;-76
2023/03/30 05:25:35;;;;;;;3.45;1.60;;;;;;;11.76;80.15;100404.63;5006520;28;20053;-76
2023/03/30 05:28:01;;;;;;;4.13;1.60;;;;;;;11.68;81.45;100407.50;5006974;28;20125;-76
2023/03/30 05:30:26;;;;;;;5.70;1.90;;;;;;;11.60;83.00;100409.56;5005600;28;20026;-76
2023/03/30 05:32:51;;;;;;;4.53;1.90;;;;;;;11.49;83.98;100411.69;5008521;28;20531;-76
2023/03/30 05:35:16;;;;;;;3.70;1.67;;;;;;;11.38;84.99;100418.16;5009384;28;20481;-76
2023/03/30 05:37:42;;;;;;;3.75;1.50;;;;;;;11.31;85.47;100424.47;5009026;28;20076;-76
2023/03/30 05:40:08;;;;;;;3.17;1.50;;;;;;;11.27;85.97;100412.50;5010373;28;20025;-76
2023/03/30 05:42:34;;;;;;;4.78;1.85;;;;;;;11.23;86.18;100413.50;5011202;28;20033;-76
2023/03/30 05:44:59;;;;;;;4.32;1.80;;;;;;;11.19;86.66;100414.50;5011056;28;20033;-76
2023/03/30 05:47:25;;;;;;;5.68;1.60;;;;;;;11.18;87.10;100413.66;5009623;28;20022;-76
2023/03/30 05:49:50;;;;;;;4.75;1.85;;;;;;;11.17;86.74;100421.53;5010496;28;20723;-77
2023/03/30 05:52:16;;;;;;;5.82;2.00;;;;;;;11.14;86.76;100416.41;5011044;28;20476;-76
2023/03/30 05:54:41;;;;;;;6.30;1.80;;;;;;;11.12;86.64;100420.81;5010986;28;20034;-76
2023/03/30 05:57:06;;;;;;;5.28;2.13;;;;;;;11.10;87.15;100412.25;5009596;28;20406;-76
2023/03/30 05:59:32;;;;;;;4.75;2.03;;;;;;;11.09;87.09;100413.97;5009645;28;20076;-76
2023/03/30 06:01:57;;;;;;;5.30;2.00;;;;;;;11.07;86.92;100414.03;5007539;28;20389;-76
2023/03/30 06:04:22;;;;;;;4.65;1.88;;;;;;;11.06;86.91;100404.53;5003199;28;20022;-76
2023/03/30 06:06:47;;;;;;;5.60;1.80;;;;;;;11.06;87.02;100401.94;5004996;28;20489;-76
2023/03/30 06:09:13;;;;;;;6.07;1.70;;;;;;;11.05;87.56;100408.03;5007321;28;20028;-76
2023/03/30 06:11:38;;;;;;;5.45;2.10;;;;;;;11.04;87.24;100414.16;5008550;28;20057;-76
2023/03/30 06:14:03;;;;;;;4.60;1.83;;;;;;;11.04;86.91;100421.09;5009579;28;20022;-76
2023/03/30 06:16:30;;;;;;;4.72;1.92;;;;;;;11.00;87.65;100422.13;5005776;28;20765;-76
2023/03/30 06:18:56;;;;;;;6.22;1.80;;;;;;;11.00;87.43;100429.94;5005395;28;20022;-76
2023/03/30 06:21:21;;;;;;;7.13;2.00;;;;;;;10.98;87.66;100432.56;5008211;28;20032;-76
2023/03/30 06:23:47;;;;;;;5.63;1.83;;;;;;;10.95;88.01;100437.88;5007175;28;20026;-76
2023/03/30 06:26:13;;;;;;;6.30;2.03;;;;;;;10.92;88.24;100433.63;5008915;28;20061;-76
2023/03/30 06:28:38;;;;;;;5.97;2.33;;;;;;;10.90;88.48;100438.03;5004268;28;20050;-76
2023/03/30 06:31:10;;;;;;;5.13;2.08;;;;;;;10.90;87.96;100434.59;5003125;28;20037;-76
2023/03/30 06:33:36;;;;;;;5.35;2.17;;;;;;;10.88;88.54;100445.03;5003830;28;20117;-76
2023/03/30 06:36:02;;;;;;;5.70;1.88;;;;;;;10.89;88.40;100440.69;5003894;28;20105;-76
2023/03/30 06:38:27;;;;;;;7.93;1.77;;;;;;;10.90;87.46;100440.63;5003818;28;20181;-76
2023/03/30 06:40:52;;;;;;;7.35;2.00;;;;;;;10.92;87.86;100445.81;5000902;28;20114;-76
2023/03/30 06:43:24;;;;;;;8.25;1.90;;;;;;;10.96;87.17;100442.16;5004170;28;20026;-76
2023/03/30 06:45:54;;;;;;;7.57;2.03;;;;;;;10.99;87.21;100447.28;5005813;28;20029;-76
2023/03/30 06:48:22;;;;;;;8.85;1.83;;;;;;;11.02;87.18;100452.38;5000261;28;20522;-76
2023/03/30 06:50:49;;;;;;;6.30;1.92;;;;;;;11.05;86.84;100467.91;4998905;28;20615;-76
2023/03/30 06:53:15;;;;;;;6.20;1.77;;;;;;;11.02;86.99;100457.59;4999879;28;20041;-76
2023/03/30 06:55:40;;;;;;;7.10;1.60;;;;;;;11.02;87.16;100465.41;5002749;28;20034;-76
2023/03/30 06:58:06;;;;;;;8.63;1.95;;;;;;;11.01;87.39;100458.50;5003748;28;20518;-76
2023/03/30 07:00:31;;;;;;;9.02;2.00;;;;;;;11.01;87.57;100448.09;5000697;28;20564;-75
2023/03/30 07:02:56;;;;;;;5.72;1.70;;;;;;;10.99;87.73;100457.69;5004540;28;20700;-76
2023/03/30 07:05:27;;;;;;;8.98;1.90;;;;;;;10.96;87.40;100449.97;5004451;28;20033;-76
2023/03/30 07:07:53;;;;;;;6.38;1.70;;;;;;;10.89;87.62;100457.16;5004514;28;20484;-76
2023/03/30 07:10:19;;;;;;;6.38;1.92;;;;;;;10.87;87.84;100460.72;5005515;28;20041;-76
2023/03/30 07:12:45;;;;;;;6.00;1.67;;;;;;;10.83;87.79;100459.97;5007951;28;20060;-75
2023/03/30 07:15:11;;;;;;;10.15;1.95;;;;;;;10.88;88.06;100465.03;5008273;28;20446;-75
2023/03/30 07:17:36;;;;;;;5.15;1.60;;;;;;;10.87;88.43;100469.34;5007681;28;20037;-75
2023/03/30 07:20:04;;;;;;;7.15;1.70;;;;;;;10.92;87.99;100480.47;5004552;28;20537;-76
2023/03/30 07:22:29;;;;;;;6.53;1.80;;;;;;;10.98;87.65;100474.22;5007142;28;20137;-76
2023/03/30 07:24:55;;;;;;;6.35;1.75;;;;;;;11.03;87.51;100474.91;5007891;28;20583;-76
2023/03/30 07:27:23;;;;;;;9.75;2.17;;;;;;;11.06;87.68;100476.56;5007612;28;20532;-75
2023/03/30 07:29:52;;;;;;;6.57;1.73;;;;;;;11.12;87.03;100475.50;5006240;28;20421;-76
2023/03/30 07:32:18;;;;;;;7.20;1.63;;;;;;;11.13;87.18;100477.19;5007237;28;20107;-75
2023/03/30 07:34:45;;;;;;;5.78;1.45;;;;;;;11.20;86.95;100476.94;5005794;28;20065;-75
2023/03/30 07:37:11;;;;;;;6.00;1.50;;;;;;;11.31;86.30;100479.16;5007843;28;20052;-77
2023/03/30 07:39:36;;;;;;;8.00;2.28;;;;;;;11.39;85.88;100479.75;5005293;28;20045;-76
2023/03/30 07:42:02;;;;;;;5.60;1.67;;;;;;;11.49;85.89;100482.03;5005539;28;20029;-77
2023/03/30 07:44:29;;;;;;;5.63;1.60;;;;;;;11.57;84.56;100487.84;5006106;28;20100;-76
2023/03/30 07:46:54;;;;;;;6.47;1.55;;;;;;;11.64;83.69;100493.69;5007289;28;20040;-77
2023/03/30 07:49:20;;;;;;;9.73;1.83;;;;;;;11.69;84.21;100486.56;5005671;28;20143;-76
2023/03/30 07:51:46;;;;;;;5.95;1.50;;;;;;;11.76;83.29;100497.59;5006107;28;20088;-76
2023/03/30 07:54:11;;;;;;;6.35;1.25;;;;;;;11.81;83.00;100495.66;5005807;28;20032;-76
2023/03/30 07:56:38;;;;;;;11.13;1.70;;;;;;;11.87;82.26;100500.66;5005981;28;20109;-76
2023/03/30 07:59:04;;;;;;;7.95;1.45;;;;;;;11.91;82.32;100512.69;5004246;28;20490;-76
2023/03/30 08:01:31;;;;;;;8.80;1.60;;;;;;;11.96;82.47;100504.69;5004717;28;20030;-76
2023/03/30 08:03:57;;;;;;;7.90;1.52;;;;;;;12.01;82.46;100513.22;5021604;28;20111;-77
2023/03/30 08:06:22;;;;;;;6.60;1.42;;;;;;;12.04;81.47;100501.81;5004496;28;20042;-76
2023/03/30 08:08:48;;;;;;;8.68;1.50;;;;;;;12.09;81.77;100510.31;5001618;28;20074;-77
2023/03/30 08:11:15;;;;;;;6.07;1.90;;;;;;;12.14;80.91;100518.81;4999318;28;20077;-76
2023/03/30 08:13:40;;;;;;;9.00;1.70;;;;;;;12.16;81.03;100519.59;4999741;28;20033;-76
2023/03/30 08:16:07;;;;;;;8.25;1.70;;;;;;;12.21;80.34;100525.50;5002458;28;20034;-76
2023/03/30 08:18:33;;;;;;;6.80;1.67;;;;;;;12.21;80.51;100524.66;5001695;28;20038;-76
2023/03/30 08:20:58;;;;;;;7.20;1.50;;;;;;;12.24;80.72;100524.53;5000639;28;20363;-76
2023/03/30 08:23:23;;;;;;;9.88;1.85;;;;;;;12.27;79.59;100520.06;5003446;28;20040;-75
2023/03/30 08:25:51;;;;;;;8.35;2.00;;;;;;;12.29;80.00;100523.47;5003594;28;20034;-77
2023/03/30 08:28:18;;;;;;;7.93;1.60;;;;;;;12.36;79.57;100512.78;5000732;28;20034;-77
2023/03/30 08:30:44;;;;;;;5.70;1.52;;;;;;;12.41;79.45;100529.13;5004136;28;20627;-77
2023/03/30 08:33:09;;;;;;;11.32;1.98;;;;;;;12.47;78.85;100531.47;5004698;28;20045;-76
2023/03/30 08:35:34;;;;;;;6.25;1.63;;;;;;;12.52;77.64;100531.31;5005721;28;20037;-76
2023/03/30 08:38:00;;;;;;;10.02;2.30;;;;;;;12.56;76.96;100541.56;5001487;28;20690;-77
2023/03/30 08:40:26;;;;;;;7.78;1.75;;;;;;;12.54;77.21;100532.94;5000616;28;20069;-76
2023/03/30 08:43:20;;;;;;;8.35;1.95;;;;;;;12.59;78.12;100524.94;5001567;28;20044;-76
2023/03/30 08:45:46;;;;;;;7.28;1.98;;;;;;;12.64;77.20;100532.59;5002283;28;20056;-77
2023/03/30 08:48:19;;;;;;;8.40;1.92;;;;;;;12.69;76.64;100541.06;5000123;28;20437;-77
2023/03/30 08:50:56;;;;;;;11.40;2.28;;;;;;;12.70;75.51;100534.94;5002377;28;20057;-76
2023/03/30 08:53:21;;;;;;;6.22;1.88;;;;;;;12.68;74.69;100528.94;4999833;28;20042;-76
2023/03/30 08:56:00;;;;;;;9.70;2.17;;;;;;;12.66;76.09;100530.75;5001968;28;20029;-76
2023/03/30 08:58:46;;;;;;;8.52;1.65;;;;;;;12.69;75.60;100536.72;5001794;28;20034;-78
2023/03/30 09:01:24;;;;;;;12.23;2.20;;;;;;;12.73;74.00;100530.44;5000360;28;20113;-76
2023/03/30 09:04:12;;;;;;;8.75;1.90;;;;;;;12.81;74.25;100529.31;5000285;28;20068;-77
2023/03/30 09:06:50;;;;;;;10.07;2.13;;;;;;;12.94;73.65;100533.13;5000242;28;20385;-76
2023/03/30 09:09:19;;;;;;;10.30;1.95;;;;;;;13.01;72.38;100544.16;5001573;28;20177;-76
2023/03/30 09:11:49;;;;;;;7.50;1.92;;;;;;;13.01;73.04;100531.09;5001626;28;20511;-76
2023/03/30 09:14:25;;;;;;;6.03;1.65;;;;;;;13.08;72.43;100532.56;5000396;28;20083;-76
2023/03/30 09:16:57;;;;;;;7.97;1.90;;;;;;;13.18;72.68;100536.47;4999444;28;20160;-77
2023/03/30 09:19:32;;;;;;;8.93;1.80;;;;;;;13.26;71.37;100545.78;5002542;28;20060;-77
2023/03/30 09:22:00;;;;;;;9.25;1.80;;;;;;;13.26;69.54;100540.53;5001076;28;20029;-76
2023/03/30 09:24:26;;;;;;;6.25;1.70;;;;;;;13.29;70.58;100551.69;5002132;28;20056;-77
2023/03/30 09:27:18;;;;;;;8.95;1.73;;;;;;;13.32;71.58;100572.47;5001175;28;20567;-80
2023/03/30 09:29:50;;;;;;;9.57;1.83;;;;;;;13.29;69.15;100571.78;5000733;28;20606;-77
2023/03/30 09:32:31;;;;;;;5.35;1.67;;;;;;;13.23;69.99;100567.66;4999333;28;20046;-76
2023/03/30 09:34:59;;;;;;;;;;;;;;;13.23;70.51;100572.00;4998986;28;20400;-76
2023/03/30 09:37:26;;;;;;;7.05;1.90;;;;;;;13.17;68.92;100571.34;5000843;28;19917;-76
2023/03/30 09:39:51;;;;;;;9.73;1.92;;;;;;;13.15;68.22;100575.78;5000077;28;20030;-76
2023/03/30 09:42:24;;;;;;;13.93;2.25;;;;;;;13.11;68.59;100574.22;5001904;28;20030;-76
2023/03/30 09:45:09;;;;;;;7.78;1.77;;;;;;;13.15;69.67;100586.22;4997768;28;20029;-76
2023/03/30 09:47:37;;;;;;;9.63;2.15;;;;;;;13.17;67.84;100581.78;5000272;28;20062;-76
2023/03/30 09:50:07;;;;;;;8.85;2.10;;;;;;;13.19;67.60;100589.59;4997495;28;20041;-76
2023/03/30 09:52:38;;;;;;;7.10;2.08;;;;;;;13.20;67.72;100584.28;5000449;28;20038;-77
2023/03/30 09:55:19;;;;;;;;;;;;;;;13.34;68.92;100591.56;5000731;28;20061;-76
2023/03/30 09:57:44;;;;;;;13.77;2.60;;;;;;;13.45;65.36;100601.59;5000557;28;20288;-76
2023/03/30 10:00:32;;;;;;;7.68;2.00;;;;;;;13.56;66.00;100595.94;5001345;28;20029;-76
2023/03/30 10:03:01;;;;;;;8.75;2.60;;;;;;;13.63;64.29;100596.53;5003793;28;20436;-77
2023/03/30 10:05:27;;;;;;;11.27;2.97;;;;;;;13.70;64.77;100597.94;5003145;28;20040;-76
2023/03/30 10:08:02;;;;;;;10.00;2.88;;;;;;;13.79;65.34;100594.94;5000677;28;21227;-76
2023/03/30 10:10:34;;;;;;;14.77;2.42;;;;;;;13.88;65.01;100595.44;4998829;28;20059;-76
2023/03/30 10:13:15;;;;;;;10.30;2.22;;;;;;;13.94;65.46;100595.19;4999163;28;20091;-76
2023/03/30 10:15:44;;;;;;;11.20;2.63;;;;;;;14.02;63.94;100600.91;5000252;28;20404;-77
2023/03/30 10:18:32;;;;;;;9.88;2.30;;;;;;;14.06;64.75;100605.09;5001383;28;20025;-76
2023/03/30 10:21:26;;;;;;;13.20;2.47;;;;;;;13.99;63.81;100606.31;5000506;28;20033;-77
2023/03/30 10:24:02;;;;;;;6.43;1.70;;;;;;;13.91;64.14;100611.00;5000304;28;20064;-77
2023/03/30 10:26:29;;;;;;;10.02;2.00;;;;;;;13.84;63.47;100606.94;5001369;28;20033;-76
2023/03/30 10:28:59;;;;;;;12.80;1.95;;;;;;;13.84;63.03;100620.03;5002141;28;20049;-77
2023/03/30 10:31:26;;;;;;;9.48;2.00;;;;;;;13.84;63.60;100622.63;5000716;28;20393;-77
2023/03/30 10:33:58;;;;;;;12.23;2.30;;;;;;;13.87;63.54;100614.66;5004209;28;20030;-76
2023/03/30 10:36:30;;;;;;;11.00;2.22;;;;;;;13.91;64.03;100611.88;5002578;28;20524;-77
2023/03/30 10:39:06;;;;;;;10.27;2.22;;;;;;;13.93;64.29;100612.63;5001083;28;20025;-76
2023/03/30 10:41:32;;;;;;;9.60;2.20;;;;;;;13.94;63.44;100610.88;5002168;28;20033;-76
2023/03/30 10:44:05;;;;;;;12.27;2.63;;;;;;;13.98;64.83;100603.75;5002920;28;20037;-76
2023/03/30 10:46:31;;;;;;;10.60;2.70;;;;;;;14.06;62.20;100605.09;5002590;28;20044;-77
2023/03/30 10:49:16;;;;;;;13.00;2.55;;;;;;;14.16;63.40;100602.09;5002648;28;20026;-76
2023/03/30 10:51:55;;;;;;;9.32;1.90;;;;;;;14.32;63.08;100603.09;5003211;28;20049;-77
2023/03/30 10:54:38;;;;;;;12.32;2.50;;;;;;;14.46;61.83;100606.84;5001056;28;20232;-76
2023/03/30 10:57:12;;;;;;;10.88;2.58;;;;;;;14.57;61.71;100605.44;5002907;28;20025;-76
2023/03/30 10:59:48;;;;;;;11.18;2.13;;;;;;;14.60;60.64;100619.31;5005303;28;20025;-76
2023/03/30 11:02:32;;;;;;;8.77;2.22;;;;;;;14.50;61.52;100613.66;5004746;28;20030;-76
2023/03/30 11:05:05;;;;;;;9.07;2.17;;;;;;;14.46;61.07;100615.53;5003859;28;20090;-77
2023/03/30 11:07:37;;;;;;;15.85;2.42;;;;;;;14.42;61.28;100612.22;5003379;28;20045;-76
2023/03/30 11:10:20;;;;;;;11.02;2.20;;;;;;;14.38;62.12;100615.88;5004695;28;20032;-77
2023/03/30 11:12:59;;;;;;;11.35;2.38;;;;;;;14.36;62.05;100611.66;5005623;28;20053;-76
2023/03/30 11:15:30;;;;;;;8.23;2.13;;;;;;;14.36;61.44;100615.09;5004011;28;20064;-76
2023/03/30 11:18:03;;;;;;;9.77;2.08;;;;;;;14.38;62.05;100613.28;5002443;28;20049;-76
2023/03/30 11:20:38;;;;;;;7.85;2.10;;;;;;;14.39;61.54;100599.28;5003445;28;20041;-78
2023/03/30 11:23:15;;;;;;;14.50;2.10;;;;;;;14.48;62.28;100625.97;5003808;28;20068;-76
2023/03/30 11:26:08;;;;;;;10.55;2.40;;;;;;;14.59;62.58;100621.06;5004411;28;20038;-77
2023/03/30 11:29:08;;;;;;;9.85;2.35;;;;;;;14.68;61.53;100615.44;5001167;28;20150;-77
2023/03/30 11:32:05;;;;;;;9.30;2.20;;;;;;;14.72;61.67;100611.75;4989393;28;20493;-77
2023/03/30 11:34:43;;;;;;;10.02;2.30;;;;;;;14.81;61.44;100602.59;5004631;28;20651;-77
2023/03/30 11:37:16;;;;;;;10.10;2.35;;;;;;;14.93;59.78;100600.34;5001839;28;20033;-77